Aeroporto :
LOGIN :

Iscrizione | Disclaimer

   EN    FR    IT 

 










Sommario :    VFR   VFR Marginale   IFR   IFR Intensivo   IFR Molto Intensivo
Visibilità : 
Base nubi : 
>= 8 km
>= 3000ft
5 / 8 km
1000 / 3000 ft
1500m / 5 km
500 / 1000 ft
800 / 1500m
200 / 500 ft
< 800m
< 200 ft
Simboli :   Temporali  Nebbia  Neve Forte  Precipitazioni Forti  Vento > 20 kt
SIGMETs :   Varie  Temporali  Ghiacco  Turbolenza  Onda orograficha  Ceneri Vulcaniche







- Altitudine del aeroporto : 1906 ft
- Codice IATA : INN


LOWI - Innsbruck

ULTIMO METAR :
  • 270450Z VRB01KT 9999 SCT045 BKN060 12/10 Q1013 NOSIG

METARs OBSOLETI :
  • 270420Z VRB02KT 9999 FEW045 BKN060 12/10 Q1013 NOSIG
  • 270350Z VRB02KT 9999 FEW040 BKN060 12/10 Q1013 NOSIG
  • 270320Z AUTO 25002KT 9999 FEW042 SCT046 BKN060 12/10 Q1013
  • 270250Z AUTO VRB01KT 9999 FEW044 SCT050 BKN060 12/10 Q1013
  • 270220Z AUTO VRB01KT 9999 FEW044 SCT050 BKN060 12/10 Q1013

TAF TAF LOWI
Valido dal 27 a 00 ore il 28 a 00 ore UTC


262315Z 2700/2724 VRB02KT 9999 FEW060 SCT110 TX21/2714Z TN11/2704Z
BECMG 2708/2710 10010KT 9999 SCT060 FEW070TCU
TEMPO 2714/2718 27010G20KT SHRA SCT050TCU BKN070
BECMG 2716/2718 28008KT 6000 RA SCT015 BKN030
Nessun NOTAM noto per questo aeroporto.



MetMap, La meteo Aeronautica in un colpo d'occhio ! - Copyright ORBIFLY Dicembre 2007 - Disclaimer

ORBIFLY MET'MAP TEAM :

Programmazione e sviluppo : Alexandra Zaïnal
Concezione e sviluppo : Baudouin d'Aumeries
Co-Programmazione e sviluppo : Marc-Olivier Méhu
Supporto tecnico e logistico : Manuel Goepfert
Aiuto per la traduzione : Arnaldo La Scala

Contatto : metmap@orbifly.com




FONTI E CREDITI :

   NOAA